sensor_id;sensor_type;location;lat;lon;timestamp;P1;durP1;ratioP1;P2;durP2;ratioP2
44480;SDS011;30184;42.018;23.670;2024-02-14T00:01:36;19.83;;;7.72;;
44480;SDS011;30184;42.018;23.670;2024-02-14T00:04:06;14.18;;;7.15;;
44480;SDS011;30184;42.018;23.670;2024-02-14T00:06:36;17.50;;;6.47;;
44480;SDS011;30184;42.018;23.670;2024-02-14T00:09:06;16.08;;;7.55;;
44480;SDS011;30184;42.018;23.670;2024-02-14T00:11:35;13.82;;;7.28;;
44480;SDS011;30184;42.018;23.670;2024-02-14T00:14:04;25.90;;;12.35;;
44480;SDS011;30184;42.018;23.670;2024-02-14T00:16:34;19.92;;;9.40;;
44480;SDS011;30184;42.018;23.670;2024-02-14T00:19:07;20.40;;;9.52;;
44480;SDS011;30184;42.018;23.670;2024-02-14T00:21:37;13.50;;;7.20;;
44480;SDS011;30184;42.018;23.670;2024-02-14T00:24:06;10.15;;;4.78;;
44480;SDS011;30184;42.018;23.670;2024-02-14T00:26:36;31.05;;;11.85;;
44480;SDS011;30184;42.018;23.670;2024-02-14T00:29:07;21.10;;;9.82;;
44480;SDS011;30184;42.018;23.670;2024-02-14T00:31:36;13.93;;;5.85;;
44480;SDS011;30184;42.018;23.670;2024-02-14T00:34:15;13.23;;;6.55;;
44480;SDS011;30184;42.018;23.670;2024-02-14T00:36:44;12.48;;;4.70;;
44480;SDS011;30184;42.018;23.670;2024-02-14T00:39:14;8.02;;;4.68;;
44480;SDS011;30184;42.018;23.670;2024-02-14T00:41:45;12.18;;;6.47;;
44480;SDS011;30184;42.018;23.670;2024-02-14T00:44:15;8.05;;;4.53;;
44480;SDS011;30184;42.018;23.670;2024-02-14T00:46:46;12.98;;;5.75;;
44480;SDS011;30184;42.018;23.670;2024-02-14T00:49:17;12.43;;;5.55;;
44480;SDS011;30184;42.018;23.670;2024-02-14T00:51:46;10.00;;;5.28;;
44480;SDS011;30184;42.018;23.670;2024-02-14T00:54:15;10.52;;;4.78;;
44480;SDS011;30184;42.018;23.670;2024-02-14T00:56:45;12.23;;;5.90;;
44480;SDS011;30184;42.018;23.670;2024-02-14T00:59:14;17.63;;;8.40;;
44480;SDS011;30184;42.018;23.670;2024-02-14T01:01:44;11.45;;;5.90;;
44480;SDS011;30184;42.018;23.670;2024-02-14T01:04:13;13.20;;;4.93;;
44480;SDS011;30184;42.018;23.670;2024-02-14T01:06:43;29.15;;;9.93;;
44480;SDS011;30184;42.018;23.670;2024-02-14T01:09:12;22.08;;;10.60;;
44480;SDS011;30184;42.018;23.670;2024-02-14T01:11:42;13.65;;;5.80;;
44480;SDS011;30184;42.018;23.670;2024-02-14T01:14:11;7.65;;;3.83;;
44480;SDS011;30184;42.018;23.670;2024-02-14T01:16:44;11.93;;;5.97;;
44480;SDS011;30184;42.018;23.670;2024-02-14T01:19:14;11.05;;;6.45;;
44480;SDS011;30184;42.018;23.670;2024-02-14T01:21:44;16.20;;;6.90;;
44480;SDS011;30184;42.018;23.670;2024-02-14T01:24:15;16.08;;;7.65;;
44480;SDS011;30184;42.018;23.670;2024-02-14T01:26:45;14.13;;;5.95;;
44480;SDS011;30184;42.018;23.670;2024-02-14T01:29:14;24.25;;;7.60;;
44480;SDS011;30184;42.018;23.670;2024-02-14T01:31:44;18.60;;;7.72;;
44480;SDS011;30184;42.018;23.670;2024-02-14T01:34:13;12.05;;;5.47;;
44480;SDS011;30184;42.018;23.670;2024-02-14T01:36:42;12.60;;;5.03;;
44480;SDS011;30184;42.018;23.670;2024-02-14T01:39:13;18.25;;;8.43;;
44480;SDS011;30184;42.018;23.670;2024-02-14T01:41:43;21.85;;;11.13;;
44480;SDS011;30184;42.018;23.670;2024-02-14T01:44:15;19.13;;;7.80;;
44480;SDS011;30184;42.018;23.670;2024-02-14T01:46:45;12.00;;;6.57;;
44480;SDS011;30184;42.018;23.670;2024-02-14T01:49:14;29.63;;;10.38;;
44480;SDS011;30184;42.018;23.670;2024-02-14T01:51:44;16.17;;;7.28;;
44480;SDS011;30184;42.018;23.670;2024-02-14T01:54:16;15.57;;;5.97;;
44480;SDS011;30184;42.018;23.670;2024-02-14T01:56:46;8.75;;;4.35;;
44480;SDS011;30184;42.018;23.670;2024-02-14T01:59:15;8.52;;;3.92;;
44480;SDS011;30184;42.018;23.670;2024-02-14T02:01:45;15.77;;;7.38;;
44480;SDS011;30184;42.018;23.670;2024-02-14T02:04:15;21.38;;;7.40;;
44480;SDS011;30184;42.018;23.670;2024-02-14T02:06:45;18.10;;;7.47;;
44480;SDS011;30184;42.018;23.670;2024-02-14T02:09:14;22.88;;;6.95;;
44480;SDS011;30184;42.018;23.670;2024-02-14T02:11:46;17.50;;;7.50;;
44480;SDS011;30184;42.018;23.670;2024-02-14T02:14:36;13.35;;;5.93;;
44480;SDS011;30184;42.018;23.670;2024-02-14T02:17:25;15.23;;;5.07;;
44480;SDS011;30184;42.018;23.670;2024-02-14T02:20:14;10.90;;;5.20;;
44480;SDS011;30184;42.018;23.670;2024-02-14T02:22:47;8.65;;;4.78;;
44480;SDS011;30184;42.018;23.670;2024-02-14T02:25:36;12.60;;;6.15;;
44480;SDS011;30184;42.018;23.670;2024-02-14T02:28:20;12.63;;;5.60;;
44480;SDS011;30184;42.018;23.670;2024-02-14T02:30:50;9.82;;;5.15;;
44480;SDS011;30184;42.018;23.670;2024-02-14T02:33:21;12.35;;;6.75;;
44480;SDS011;30184;42.018;23.670;2024-02-14T02:35:50;15.90;;;7.32;;
44480;SDS011;30184;42.018;23.670;2024-02-14T02:38:41;12.00;;;5.57;;
44480;SDS011;30184;42.018;23.670;2024-02-14T02:41:30;16.48;;;7.88;;
44480;SDS011;30184;42.018;23.670;2024-02-14T02:44:19;31.15;;;11.57;;
44480;SDS011;30184;42.018;23.670;2024-02-14T02:47:06;15.50;;;6.68;;
44480;SDS011;30184;42.018;23.670;2024-02-14T02:49:56;21.52;;;7.65;;
44480;SDS011;30184;42.018;23.670;2024-02-14T02:52:48;23.52;;;10.65;;
44480;SDS011;30184;42.018;23.670;2024-02-14T02:55:39;21.85;;;8.77;;
44480;SDS011;30184;42.018;23.670;2024-02-14T02:58:08;20.00;;;7.18;;
44480;SDS011;30184;42.018;23.670;2024-02-14T03:00:38;13.88;;;5.63;;
44480;SDS011;30184;42.018;23.670;2024-02-14T03:03:20;11.20;;;6.13;;
44480;SDS011;30184;42.018;23.670;2024-02-14T03:06:05;26.90;;;8.63;;
44480;SDS011;30184;42.018;23.670;2024-02-14T03:08:55;11.45;;;5.90;;
44480;SDS011;30184;42.018;23.670;2024-02-14T03:11:47;53.65;;;14.82;;
44480;SDS011;30184;42.018;23.670;2024-02-14T03:14:36;23.10;;;9.82;;
44480;SDS011;30184;42.018;23.670;2024-02-14T03:17:26;21.30;;;7.70;;
44480;SDS011;30184;42.018;23.670;2024-02-14T03:19:56;33.65;;;10.85;;
44480;SDS011;30184;42.018;23.670;2024-02-14T03:22:25;36.25;;;13.55;;
44480;SDS011;30184;42.018;23.670;2024-02-14T03:24:54;26.73;;;9.52;;
44480;SDS011;30184;42.018;23.670;2024-02-14T03:27:25;26.63;;;12.35;;
44480;SDS011;30184;42.018;23.670;2024-02-14T03:29:54;30.83;;;12.32;;
44480;SDS011;30184;42.018;23.670;2024-02-14T03:32:26;30.77;;;10.95;;
44480;SDS011;30184;42.018;23.670;2024-02-14T03:34:55;32.38;;;11.40;;
44480;SDS011;30184;42.018;23.670;2024-02-14T03:37:24;29.33;;;10.32;;
44480;SDS011;30184;42.018;23.670;2024-02-14T03:39:53;19.20;;;9.77;;
44480;SDS011;30184;42.018;23.670;2024-02-14T03:42:22;28.38;;;8.98;;
44480;SDS011;30184;42.018;23.670;2024-02-14T03:44:52;49.83;;;12.50;;
44480;SDS011;30184;42.018;23.670;2024-02-14T03:47:31;30.20;;;12.18;;
44480;SDS011;30184;42.018;23.670;2024-02-14T03:50:01;40.80;;;11.95;;
44480;SDS011;30184;42.018;23.670;2024-02-14T03:52:32;37.45;;;11.35;;
44480;SDS011;30184;42.018;23.670;2024-02-14T03:55:01;34.10;;;17.55;;
44480;SDS011;30184;42.018;23.670;2024-02-14T03:57:32;19.10;;;9.90;;
44480;SDS011;30184;42.018;23.670;2024-02-14T04:00:07;22.70;;;10.32;;
44480;SDS011;30184;42.018;23.670;2024-02-14T04:02:38;10.35;;;7.38;;
44480;SDS011;30184;42.018;23.670;2024-02-14T04:05:08;18.75;;;9.65;;
44480;SDS011;30184;42.018;23.670;2024-02-14T04:07:37;19.20;;;7.93;;
44480;SDS011;30184;42.018;23.670;2024-02-14T04:10:07;18.80;;;7.60;;
44480;SDS011;30184;42.018;23.670;2024-02-14T04:12:36;13.20;;;7.32;;
44480;SDS011;30184;42.018;23.670;2024-02-14T04:15:07;15.32;;;8.90;;
44480;SDS011;30184;42.018;23.670;2024-02-14T04:17:48;16.88;;;8.52;;
44480;SDS011;30184;42.018;23.670;2024-02-14T04:20:17;14.57;;;6.60;;
44480;SDS011;30184;42.018;23.670;2024-02-14T04:22:46;27.90;;;5.63;;
44480;SDS011;30184;42.018;23.670;2024-02-14T04:25:15;11.75;;;5.68;;
44480;SDS011;30184;42.018;23.670;2024-02-14T04:27:46;14.15;;;6.63;;
44480;SDS011;30184;42.018;23.670;2024-02-14T04:30:16;23.13;;;9.32;;
44480;SDS011;30184;42.018;23.670;2024-02-14T04:33:04;17.17;;;7.78;;
44480;SDS011;30184;42.018;23.670;2024-02-14T04:35:34;19.60;;;8.05;;
44480;SDS011;30184;42.018;23.670;2024-02-14T04:38:04;15.38;;;8.90;;
44480;SDS011;30184;42.018;23.670;2024-02-14T04:40:33;13.55;;;7.43;;
44480;SDS011;30184;42.018;23.670;2024-02-14T04:43:02;16.83;;;8.07;;
44480;SDS011;30184;42.018;23.670;2024-02-14T04:45:33;15.20;;;7.38;;
44480;SDS011;30184;42.018;23.670;2024-02-14T04:48:06;21.52;;;8.52;;
44480;SDS011;30184;42.018;23.670;2024-02-14T04:50:36;15.15;;;6.40;;
44480;SDS011;30184;42.018;23.670;2024-02-14T04:53:07;18.00;;;9.98;;
44480;SDS011;30184;42.018;23.670;2024-02-14T04:55:36;29.27;;;11.77;;
44480;SDS011;30184;42.018;23.670;2024-02-14T04:58:05;23.42;;;12.52;;
44480;SDS011;30184;42.018;23.670;2024-02-14T05:00:35;24.58;;;11.07;;
44480;SDS011;30184;42.018;23.670;2024-02-14T05:03:05;25.55;;;11.90;;
44480;SDS011;30184;42.018;23.670;2024-02-14T05:05:35;28.05;;;11.05;;
44480;SDS011;30184;42.018;23.670;2024-02-14T05:08:04;20.50;;;9.60;;
44480;SDS011;30184;42.018;23.670;2024-02-14T05:10:33;21.60;;;10.68;;
44480;SDS011;30184;42.018;23.670;2024-02-14T05:13:03;37.03;;;15.68;;
44480;SDS011;30184;42.018;23.670;2024-02-14T05:15:32;32.85;;;12.68;;
44480;SDS011;30184;42.018;23.670;2024-02-14T05:18:04;39.75;;;15.52;;
44480;SDS011;30184;42.018;23.670;2024-02-14T05:20:33;23.05;;;9.63;;
44480;SDS011;30184;42.018;23.670;2024-02-14T05:23:03;37.47;;;15.25;;
44480;SDS011;30184;42.018;23.670;2024-02-14T05:25:32;31.48;;;13.00;;
44480;SDS011;30184;42.018;23.670;2024-02-14T05:28:02;34.30;;;16.17;;
44480;SDS011;30184;42.018;23.670;2024-02-14T05:30:31;23.48;;;10.38;;
44480;SDS011;30184;42.018;23.670;2024-02-14T05:33:15;28.17;;;12.40;;
44480;SDS011;30184;42.018;23.670;2024-02-14T05:35:48;28.02;;;12.05;;
44480;SDS011;30184;42.018;23.670;2024-02-14T05:38:18;28.70;;;13.52;;
44480;SDS011;30184;42.018;23.670;2024-02-14T05:40:48;34.28;;;14.38;;
44480;SDS011;30184;42.018;23.670;2024-02-14T05:43:17;28.20;;;14.82;;
44480;SDS011;30184;42.018;23.670;2024-02-14T05:45:46;28.45;;;11.80;;
44480;SDS011;30184;42.018;23.670;2024-02-14T05:48:17;30.85;;;13.13;;
44480;SDS011;30184;42.018;23.670;2024-02-14T05:50:46;27.02;;;12.05;;
44480;SDS011;30184;42.018;23.670;2024-02-14T05:53:15;31.90;;;16.80;;
44480;SDS011;30184;42.018;23.670;2024-02-14T05:55:45;32.88;;;17.25;;
44480;SDS011;30184;42.018;23.670;2024-02-14T05:58:14;39.20;;;18.02;;
44480;SDS011;30184;42.018;23.670;2024-02-14T06:00:43;32.80;;;16.90;;
44480;SDS011;30184;42.018;23.670;2024-02-14T06:03:12;39.65;;;18.90;;
44480;SDS011;30184;42.018;23.670;2024-02-14T06:05:43;63.47;;;29.50;;
44480;SDS011;30184;42.018;23.670;2024-02-14T06:08:12;46.35;;;24.55;;
44480;SDS011;30184;42.018;23.670;2024-02-14T06:10:41;46.25;;;23.05;;
44480;SDS011;30184;42.018;23.670;2024-02-14T06:13:11;50.72;;;20.70;;
44480;SDS011;30184;42.018;23.670;2024-02-14T06:15:40;106.25;;;35.85;;
44480;SDS011;30184;42.018;23.670;2024-02-14T06:18:09;64.65;;;29.15;;
44480;SDS011;30184;42.018;23.670;2024-02-14T06:20:38;76.95;;;31.90;;
44480;SDS011;30184;42.018;23.670;2024-02-14T06:23:09;127.25;;;45.67;;
44480;SDS011;30184;42.018;23.670;2024-02-14T06:25:38;65.63;;;24.92;;
44480;SDS011;30184;42.018;23.670;2024-02-14T06:28:09;50.88;;;21.77;;
44480;SDS011;30184;42.018;23.670;2024-02-14T06:30:38;35.97;;;18.73;;
44480;SDS011;30184;42.018;23.670;2024-02-14T06:33:07;36.53;;;13.52;;
44480;SDS011;30184;42.018;23.670;2024-02-14T06:35:36;30.88;;;15.13;;
44480;SDS011;30184;42.018;23.670;2024-02-14T06:38:06;27.33;;;15.68;;
44480;SDS011;30184;42.018;23.670;2024-02-14T06:40:36;29.05;;;11.32;;
44480;SDS011;30184;42.018;23.670;2024-02-14T06:43:05;23.38;;;10.32;;
44480;SDS011;30184;42.018;23.670;2024-02-14T06:45:34;26.55;;;14.05;;
44480;SDS011;30184;42.018;23.670;2024-02-14T06:48:15;22.23;;;11.10;;
44480;SDS011;30184;42.018;23.670;2024-02-14T06:50:48;33.42;;;11.60;;
44480;SDS011;30184;42.018;23.670;2024-02-14T06:53:17;182.73;;;52.10;;
44480;SDS011;30184;42.018;23.670;2024-02-14T06:55:48;68.53;;;30.55;;
44480;SDS011;30184;42.018;23.670;2024-02-14T06:58:17;38.97;;;16.42;;
44480;SDS011;30184;42.018;23.670;2024-02-14T07:00:47;33.20;;;16.10;;
44480;SDS011;30184;42.018;23.670;2024-02-14T07:03:16;30.73;;;13.10;;
44480;SDS011;30184;42.018;23.670;2024-02-14T07:05:45;29.05;;;13.88;;
44480;SDS011;30184;42.018;23.670;2024-02-14T07:08:14;47.33;;;18.70;;
44480;SDS011;30184;42.018;23.670;2024-02-14T07:10:43;70.70;;;25.33;;
44480;SDS011;30184;42.018;23.670;2024-02-14T07:13:14;64.78;;;24.40;;
44480;SDS011;30184;42.018;23.670;2024-02-14T07:15:44;44.50;;;17.15;;
44480;SDS011;30184;42.018;23.670;2024-02-14T07:18:13;44.97;;;16.55;;
44480;SDS011;30184;42.018;23.670;2024-02-14T07:20:42;49.63;;;19.55;;
44480;SDS011;30184;42.018;23.670;2024-02-14T07:23:12;32.50;;;14.60;;
44480;SDS011;30184;42.018;23.670;2024-02-14T07:25:41;32.00;;;15.98;;
44480;SDS011;30184;42.018;23.670;2024-02-14T07:28:10;21.65;;;12.50;;
44480;SDS011;30184;42.018;23.670;2024-02-14T07:30:41;54.97;;;23.35;;
44480;SDS011;30184;42.018;23.670;2024-02-14T07:33:10;17.92;;;8.45;;
44480;SDS011;30184;42.018;23.670;2024-02-14T07:35:40;19.65;;;9.60;;
44480;SDS011;30184;42.018;23.670;2024-02-14T07:38:10;51.13;;;21.80;;
44480;SDS011;30184;42.018;23.670;2024-02-14T07:40:39;24.63;;;13.85;;
44480;SDS011;30184;42.018;23.670;2024-02-14T07:43:16;28.75;;;13.70;;
44480;SDS011;30184;42.018;23.670;2024-02-14T07:45:46;26.55;;;11.90;;
44480;SDS011;30184;42.018;23.670;2024-02-14T07:48:16;26.88;;;11.63;;
44480;SDS011;30184;42.018;23.670;2024-02-14T07:50:45;38.88;;;19.40;;
44480;SDS011;30184;42.018;23.670;2024-02-14T07:53:14;32.35;;;14.02;;
44480;SDS011;30184;42.018;23.670;2024-02-14T07:55:43;30.13;;;15.35;;
44480;SDS011;30184;42.018;23.670;2024-02-14T07:58:12;23.92;;;13.13;;
44480;SDS011;30184;42.018;23.670;2024-02-14T08:00:41;15.55;;;8.35;;
44480;SDS011;30184;42.018;23.670;2024-02-14T08:03:12;20.20;;;9.63;;
44480;SDS011;30184;42.018;23.670;2024-02-14T08:05:41;12.18;;;7.95;;
44480;SDS011;30184;42.018;23.670;2024-02-14T08:08:10;18.77;;;8.40;;
44480;SDS011;30184;42.018;23.670;2024-02-14T08:10:39;26.33;;;9.35;;
44480;SDS011;30184;42.018;23.670;2024-02-14T08:13:08;27.42;;;10.45;;
44480;SDS011;30184;42.018;23.670;2024-02-14T08:15:38;79.40;;;28.17;;
44480;SDS011;30184;42.018;23.670;2024-02-14T08:18:08;50.05;;;21.70;;
44480;SDS011;30184;42.018;23.670;2024-02-14T08:20:39;90.80;;;27.40;;
44480;SDS011;30184;42.018;23.670;2024-02-14T08:23:13;39.05;;;15.35;;
44480;SDS011;30184;42.018;23.670;2024-02-14T08:25:42;57.45;;;23.13;;
44480;SDS011;30184;42.018;23.670;2024-02-14T08:28:11;39.90;;;14.57;;
44480;SDS011;30184;42.018;23.670;2024-02-14T08:30:40;53.95;;;21.08;;
44480;SDS011;30184;42.018;23.670;2024-02-14T08:33:09;28.17;;;12.43;;
44480;SDS011;30184;42.018;23.670;2024-02-14T08:35:40;70.22;;;25.52;;
44480;SDS011;30184;42.018;23.670;2024-02-14T08:38:09;32.53;;;13.73;;
44480;SDS011;30184;42.018;23.670;2024-02-14T08:40:38;10.05;;;6.18;;
44480;SDS011;30184;42.018;23.670;2024-02-14T08:43:08;17.92;;;7.55;;
44480;SDS011;30184;42.018;23.670;2024-02-14T08:45:37;15.70;;;6.78;;
44480;SDS011;30184;42.018;23.670;2024-02-14T08:48:06;11.90;;;6.18;;
44480;SDS011;30184;42.018;23.670;2024-02-14T08:50:35;17.52;;;8.38;;
44480;SDS011;30184;42.018;23.670;2024-02-14T08:53:06;22.70;;;10.07;;
44480;SDS011;30184;42.018;23.670;2024-02-14T08:55:35;36.80;;;20.30;;
44480;SDS011;30184;42.018;23.670;2024-02-14T08:58:05;20.65;;;9.23;;
44480;SDS011;30184;42.018;23.670;2024-02-14T09:00:37;19.33;;;8.20;;
44480;SDS011;30184;42.018;23.670;2024-02-14T09:03:06;20.90;;;8.52;;
44480;SDS011;30184;42.018;23.670;2024-02-14T09:05:36;19.60;;;8.27;;
44480;SDS011;30184;42.018;23.670;2024-02-14T09:08:08;18.83;;;8.75;;
44480;SDS011;30184;42.018;23.670;2024-02-14T09:10:37;10.55;;;4.53;;
44480;SDS011;30184;42.018;23.670;2024-02-14T09:13:06;14.50;;;7.18;;
44480;SDS011;30184;42.018;23.670;2024-02-14T09:15:36;8.07;;;3.75;;
44480;SDS011;30184;42.018;23.670;2024-02-14T09:18:05;8.60;;;3.33;;
44480;SDS011;30184;42.018;23.670;2024-02-14T09:20:35;14.60;;;6.55;;
44480;SDS011;30184;42.018;23.670;2024-02-14T09:23:05;21.83;;;7.82;;
44480;SDS011;30184;42.018;23.670;2024-02-14T09:25:37;24.63;;;11.35;;
44480;SDS011;30184;42.018;23.670;2024-02-14T09:28:07;29.48;;;11.25;;
44480;SDS011;30184;42.018;23.670;2024-02-14T09:30:36;42.35;;;12.40;;
44480;SDS011;30184;42.018;23.670;2024-02-14T09:33:06;25.90;;;10.50;;
44480;SDS011;30184;42.018;23.670;2024-02-14T09:35:35;111.55;;;39.22;;
44480;SDS011;30184;42.018;23.670;2024-02-14T09:38:07;163.20;;;59.95;;
44480;SDS011;30184;42.018;23.670;2024-02-14T09:40:37;80.25;;;33.83;;
44480;SDS011;30184;42.018;23.670;2024-02-14T09:43:08;68.07;;;28.38;;
44480;SDS011;30184;42.018;23.670;2024-02-14T09:45:49;37.55;;;16.98;;
44480;SDS011;30184;42.018;23.670;2024-02-14T09:48:22;34.20;;;15.30;;
44480;SDS011;30184;42.018;23.670;2024-02-14T09:50:52;47.53;;;17.02;;
44480;SDS011;30184;42.018;23.670;2024-02-14T09:53:22;41.53;;;14.82;;
44480;SDS011;30184;42.018;23.670;2024-02-14T09:55:54;30.20;;;13.80;;
44480;SDS011;30184;42.018;23.670;2024-02-14T09:58:23;22.13;;;10.90;;
44480;SDS011;30184;42.018;23.670;2024-02-14T10:00:54;27.02;;;12.63;;
44480;SDS011;30184;42.018;23.670;2024-02-14T10:03:23;23.55;;;12.15;;
44480;SDS011;30184;42.018;23.670;2024-02-14T10:05:53;25.23;;;11.20;;
44480;SDS011;30184;42.018;23.670;2024-02-14T10:08:23;24.30;;;10.35;;
44480;SDS011;30184;42.018;23.670;2024-02-14T10:10:56;15.77;;;7.35;;
44480;SDS011;30184;42.018;23.670;2024-02-14T10:13:26;15.95;;;6.90;;
44480;SDS011;30184;42.018;23.670;2024-02-14T10:15:58;12.57;;;5.88;;
44480;SDS011;30184;42.018;23.670;2024-02-14T10:18:28;13.15;;;5.10;;
44480;SDS011;30184;42.018;23.670;2024-02-14T10:20:57;11.98;;;5.93;;
44480;SDS011;30184;42.018;23.670;2024-02-14T10:23:27;10.27;;;5.85;;
44480;SDS011;30184;42.018;23.670;2024-02-14T10:25:58;11.00;;;5.45;;
44480;SDS011;30184;42.018;23.670;2024-02-14T10:28:28;14.68;;;7.53;;
44480;SDS011;30184;42.018;23.670;2024-02-14T10:30:59;20.23;;;8.70;;
44480;SDS011;30184;42.018;23.670;2024-02-14T10:33:28;33.55;;;12.38;;
44480;SDS011;30184;42.018;23.670;2024-02-14T10:35:58;29.95;;;11.23;;
44480;SDS011;30184;42.018;23.670;2024-02-14T10:38:30;20.63;;;9.98;;
44480;SDS011;30184;42.018;23.670;2024-02-14T10:41:02;30.38;;;10.23;;
44480;SDS011;30184;42.018;23.670;2024-02-14T10:43:31;14.35;;;6.88;;
44480;SDS011;30184;42.018;23.670;2024-02-14T10:46:06;27.80;;;9.20;;
44480;SDS011;30184;42.018;23.670;2024-02-14T10:48:39;17.02;;;7.00;;
44480;SDS011;30184;42.018;23.670;2024-02-14T10:51:09;20.98;;;9.32;;
44480;SDS011;30184;42.018;23.670;2024-02-14T10:53:43;23.60;;;9.63;;
44480;SDS011;30184;42.018;23.670;2024-02-14T10:56:17;26.23;;;10.80;;
44480;SDS011;30184;42.018;23.670;2024-02-14T10:58:47;24.90;;;11.00;;
44480;SDS011;30184;42.018;23.670;2024-02-14T11:01:17;21.30;;;9.60;;
44480;SDS011;30184;42.018;23.670;2024-02-14T11:03:48;33.05;;;12.23;;
44480;SDS011;30184;42.018;23.670;2024-02-14T11:06:18;26.77;;;11.10;;
44480;SDS011;30184;42.018;23.670;2024-02-14T11:08:55;26.33;;;10.70;;
44480;SDS011;30184;42.018;23.670;2024-02-14T11:11:29;28.83;;;10.07;;
44480;SDS011;30184;42.018;23.670;2024-02-14T11:13:58;26.15;;;12.82;;
44480;SDS011;30184;42.018;23.670;2024-02-14T11:16:28;17.10;;;8.05;;
44480;SDS011;30184;42.018;23.670;2024-02-14T11:19:07;13.07;;;5.63;;
44480;SDS011;30184;42.018;23.670;2024-02-14T11:21:39;24.77;;;9.60;;
44480;SDS011;30184;42.018;23.670;2024-02-14T11:24:10;10.93;;;6.07;;
44480;SDS011;30184;42.018;23.670;2024-02-14T11:26:50;23.38;;;8.35;;
44480;SDS011;30184;42.018;23.670;2024-02-14T11:29:20;15.02;;;8.02;;
44480;SDS011;30184;42.018;23.670;2024-02-14T11:31:56;31.50;;;11.00;;
44480;SDS011;30184;42.018;23.670;2024-02-14T11:34:27;23.67;;;8.40;;
44480;SDS011;30184;42.018;23.670;2024-02-14T11:37:00;15.75;;;7.70;;
44480;SDS011;30184;42.018;23.670;2024-02-14T11:39:29;16.60;;;8.05;;
44480;SDS011;30184;42.018;23.670;2024-02-14T11:42:03;17.80;;;9.20;;
44480;SDS011;30184;42.018;23.670;2024-02-14T11:44:32;20.17;;;9.10;;
44480;SDS011;30184;42.018;23.670;2024-02-14T11:47:01;18.83;;;8.18;;
44480;SDS011;30184;42.018;23.670;2024-02-14T11:49:32;28.80;;;10.48;;
44480;SDS011;30184;42.018;23.670;2024-02-14T11:52:01;17.45;;;6.63;;
44480;SDS011;30184;42.018;23.670;2024-02-14T11:54:33;24.23;;;10.52;;
44480;SDS011;30184;42.018;23.670;2024-02-14T11:57:04;67.60;;;21.23;;
44480;SDS011;30184;42.018;23.670;2024-02-14T11:59:35;24.30;;;10.95;;
44480;SDS011;30184;42.018;23.670;2024-02-14T12:02:05;31.33;;;10.48;;
44480;SDS011;30184;42.018;23.670;2024-02-14T12:04:34;39.15;;;13.93;;
44480;SDS011;30184;42.018;23.670;2024-02-14T12:07:03;16.27;;;6.78;;
44480;SDS011;30184;42.018;23.670;2024-02-14T12:09:33;14.50;;;8.20;;
44480;SDS011;30184;42.018;23.670;2024-02-14T12:12:04;37.40;;;13.23;;
44480;SDS011;30184;42.018;23.670;2024-02-14T12:14:33;16.98;;;8.73;;
44480;SDS011;30184;42.018;23.670;2024-02-14T12:17:02;12.80;;;6.60;;
44480;SDS011;30184;42.018;23.670;2024-02-14T12:19:34;19.88;;;6.80;;
44480;SDS011;30184;42.018;23.670;2024-02-14T12:22:08;18.75;;;7.75;;
44480;SDS011;30184;42.018;23.670;2024-02-14T12:24:39;18.58;;;5.90;;
44480;SDS011;30184;42.018;23.670;2024-02-14T12:27:10;15.80;;;7.10;;
44480;SDS011;30184;42.018;23.670;2024-02-14T12:29:39;9.65;;;4.75;;
44480;SDS011;30184;42.018;23.670;2024-02-14T12:32:08;8.25;;;4.38;;
44480;SDS011;30184;42.018;23.670;2024-02-14T12:34:37;12.38;;;5.57;;
44480;SDS011;30184;42.018;23.670;2024-02-14T12:37:06;13.07;;;5.35;;
44480;SDS011;30184;42.018;23.670;2024-02-14T12:39:37;45.50;;;13.30;;
44480;SDS011;30184;42.018;23.670;2024-02-14T12:42:07;45.47;;;18.33;;
44480;SDS011;30184;42.018;23.670;2024-02-14T12:44:38;33.63;;;10.52;;
44480;SDS011;30184;42.018;23.670;2024-02-14T12:47:07;52.33;;;16.73;;
44480;SDS011;30184;42.018;23.670;2024-02-14T12:49:36;30.58;;;11.45;;
44480;SDS011;30184;42.018;23.670;2024-02-14T12:52:05;74.88;;;22.27;;
44480;SDS011;30184;42.018;23.670;2024-02-14T12:54:34;75.82;;;22.77;;
44480;SDS011;30184;42.018;23.670;2024-02-14T12:57:03;51.08;;;16.33;;
44480;SDS011;30184;42.018;23.670;2024-02-14T12:59:34;61.85;;;19.42;;
44480;SDS011;30184;42.018;23.670;2024-02-14T13:02:04;39.03;;;12.25;;
44480;SDS011;30184;42.018;23.670;2024-02-14T13:04:35;32.88;;;12.90;;
44480;SDS011;30184;42.018;23.670;2024-02-14T13:07:05;33.88;;;13.05;;
44480;SDS011;30184;42.018;23.670;2024-02-14T13:09:34;84.32;;;23.23;;
44480;SDS011;30184;42.018;23.670;2024-02-14T13:12:04;146.80;;;35.70;;
44480;SDS011;30184;42.018;23.670;2024-02-14T13:14:37;117.10;;;35.42;;
44480;SDS011;30184;42.018;23.670;2024-02-14T13:17:07;70.18;;;23.13;;
44480;SDS011;30184;42.018;23.670;2024-02-14T13:19:38;68.38;;;21.23;;
44480;SDS011;30184;42.018;23.670;2024-02-14T13:22:07;35.17;;;15.05;;
44480;SDS011;30184;42.018;23.670;2024-02-14T13:24:37;35.47;;;10.75;;
44480;SDS011;30184;42.018;23.670;2024-02-14T13:27:06;33.45;;;11.48;;
44480;SDS011;30184;42.018;23.670;2024-02-14T13:29:37;11.35;;;5.43;;
44480;SDS011;30184;42.018;23.670;2024-02-14T13:32:08;16.25;;;7.10;;
44480;SDS011;30184;42.018;23.670;2024-02-14T13:34:37;15.82;;;7.20;;
44480;SDS011;30184;42.018;23.670;2024-02-14T13:37:07;11.93;;;5.85;;
44480;SDS011;30184;42.018;23.670;2024-02-14T13:39:36;4.55;;;2.50;;
44480;SDS011;30184;42.018;23.670;2024-02-14T13:42:06;9.40;;;4.70;;
44480;SDS011;30184;42.018;23.670;2024-02-14T13:44:35;9.98;;;4.63;;
44480;SDS011;30184;42.018;23.670;2024-02-14T13:47:04;8.65;;;3.33;;
44480;SDS011;30184;42.018;23.670;2024-02-14T13:49:35;6.88;;;3.45;;
44480;SDS011;30184;42.018;23.670;2024-02-14T13:52:05;7.28;;;3.40;;
44480;SDS011;30184;42.018;23.670;2024-02-14T13:54:34;12.77;;;4.97;;
44480;SDS011;30184;42.018;23.670;2024-02-14T13:57:04;17.75;;;5.10;;
44480;SDS011;30184;42.018;23.670;2024-02-14T13:59:33;40.15;;;12.70;;
44480;SDS011;30184;42.018;23.670;2024-02-14T14:02:02;14.80;;;4.90;;
44480;SDS011;30184;42.018;23.670;2024-02-14T14:04:31;12.27;;;4.97;;
44480;SDS011;30184;42.018;23.670;2024-02-14T14:07:04;10.60;;;4.50;;
44480;SDS011;30184;42.018;23.670;2024-02-14T14:09:33;4.65;;;2.20;;
44480;SDS011;30184;42.018;23.670;2024-02-14T14:12:03;28.25;;;9.90;;
44480;SDS011;30184;42.018;23.670;2024-02-14T14:14:32;11.63;;;5.28;;
44480;SDS011;30184;42.018;23.670;2024-02-14T14:17:02;6.35;;;3.90;;
44480;SDS011;30184;42.018;23.670;2024-02-14T14:19:32;21.13;;;6.03;;
44480;SDS011;30184;42.018;23.670;2024-02-14T14:22:04;14.93;;;8.55;;
44480;SDS011;30184;42.018;23.670;2024-02-14T14:24:33;18.48;;;7.93;;
44480;SDS011;30184;42.018;23.670;2024-02-14T14:27:03;18.50;;;7.97;;
44480;SDS011;30184;42.018;23.670;2024-02-14T14:29:36;11.68;;;4.75;;
44480;SDS011;30184;42.018;23.670;2024-02-14T14:32:06;10.75;;;5.10;;
44480;SDS011;30184;42.018;23.670;2024-02-14T14:34:36;14.98;;;7.00;;
44480;SDS011;30184;42.018;23.670;2024-02-14T14:37:06;5.30;;;2.83;;
44480;SDS011;30184;42.018;23.670;2024-02-14T14:39:37;9.85;;;3.22;;